Time;durP1;ratioP1;P1;durP2;ratioP2;P2;SDS_P1;SDS_P2;PMS_P1;PMS_P2;Temp;Humidity;BMP_temperature;BMP_pressure;BME280_temperature;BME280_humidity;BME280_pressure;Samples;Min_cycle;Max_cycle;Signal;HPM_P1;HPM_P2
2020/12/23 00:01:18;;;;;;;46.70;30.35;;;13.20;99.90;;;;;;5075091;28;20047;-61
2020/12/23 00:03:46;;;;;;;46.75;30.63;;;13.20;99.90;;;;;;5092865;28;20139;-60
2020/12/23 00:06:13;;;;;;;56.10;33.30;;;13.20;99.90;;;;;;5066889;28;20470;-61
2020/12/23 00:08:41;;;;;;;48.78;30.05;;;13.20;99.90;;;;;;5074601;28;20466;-61
2020/12/23 00:11:08;;;;;;;49.70;31.88;;;13.20;99.90;;;;;;5075568;28;20094;-61
2020/12/23 00:13:36;;;;;;;48.58;31.02;;;13.10;99.90;;;;;;5075078;28;20084;-60
2020/12/23 00:16:06;;;;;;;48.17;31.73;;;13.10;99.90;;;;;;5075547;28;20394;-60
2020/12/23 00:18:34;;;;;;;44.42;29.92;;;13.10;99.90;;;;;;5074496;28;20040;-61
2020/12/23 00:21:02;;;;;;;45.20;29.10;;;13.10;99.90;;;;;;5075228;28;20452;-60
2020/12/23 00:23:29;;;;;;;48.65;31.10;;;13.00;99.90;;;;;;5074530;28;20036;-60
2020/12/23 00:25:57;;;;;;;45.17;28.90;;;13.00;99.90;;;;;;5093433;28;20055;-60
2020/12/23 00:28:24;;;;;;;45.67;29.67;;;13.00;99.90;;;;;;5058212;28;20044;-61
2020/12/23 00:30:51;;;;;;;46.42;30.23;;;13.00;99.90;;;;;;5092814;28;20131;-60
2020/12/23 00:33:25;;;;;;;38.88;27.67;;;13.00;99.90;;;;;;5074699;28;20056;-60
2020/12/23 00:35:52;;;;;;;39.15;26.70;;;13.00;99.90;;;;;;5074939;28;20453;-60
2020/12/23 00:38:20;;;;;;;42.53;28.10;;;12.90;99.90;;;;;;5074803;28;20106;-61
2020/12/23 00:40:47;;;;;;;37.20;26.92;;;12.90;99.90;;;;;;5074817;28;20040;-60
2020/12/23 00:43:15;;;;;;;39.50;26.38;;;12.90;99.90;;;;;;5076562;28;20044;-61
2020/12/23 00:45:43;;;;;;;37.25;25.05;;;12.90;99.90;;;;;;5067755;28;20182;-60
2020/12/23 00:48:10;;;;;;;37.75;25.70;;;12.90;99.90;;;;;;5062038;28;20036;-60
2020/12/23 00:50:38;;;;;;;34.55;24.02;;;12.90;99.90;;;;;;5096104;28;20052;-61
2020/12/23 00:53:06;;;;;;;34.53;23.15;;;12.90;99.90;;;;;;5045105;28;20072;-60
2020/12/23 00:55:33;;;;;;;38.17;22.73;;;12.90;99.90;;;;;;5058459;28;20044;-60
2020/12/23 00:58:00;;;;;;;34.60;23.73;;;12.90;99.90;;;;;;5078200;28;20078;-60
2020/12/23 01:00:28;;;;;;;36.22;23.55;;;12.90;99.90;;;;;;5078499;28;20046;-60
2020/12/23 01:02:55;;;;;;;37.13;23.38;;;12.90;99.90;;;;;;5095642;28;20044;-60
2020/12/23 01:05:22;;;;;;;33.03;22.42;;;12.90;99.90;;;;;;5078363;28;20051;-60
2020/12/23 01:07:50;;;;;;;35.17;23.45;;;12.90;99.90;;;;;;5078306;28;20071;-61
2020/12/23 01:10:17;;;;;;;32.38;22.17;;;12.90;99.90;;;;;;5095367;28;20044;-61
2020/12/23 01:12:45;;;;;;;35.00;22.23;;;12.80;99.90;;;;;;5077768;28;20052;-61
2020/12/23 01:15:12;;;;;;;31.20;19.67;;;12.80;99.90;;;;;;5038534;28;20138;-60
2020/12/23 01:17:43;;;;;;;31.33;20.48;;;12.80;99.90;;;;;;5061812;28;20050;-61
2020/12/23 01:20:10;;;;;;;28.83;21.05;;;12.80;99.90;;;;;;5078220;28;20056;-60
2020/12/23 01:22:38;;;;;;;30.33;21.23;;;12.80;99.90;;;;;;5078190;28;20090;-60
2020/12/23 01:25:05;;;;;;;28.10;19.65;;;12.80;99.90;;;;;;5049480;28;20048;-60
2020/12/23 01:27:32;;;;;;;28.88;20.77;;;12.80;99.90;;;;;;5095951;28;20056;-61
2020/12/23 01:30:00;;;;;;;31.40;20.58;;;12.80;99.90;;;;;;5061201;28;20055;-60
2020/12/23 01:32:27;;;;;;;30.90;20.25;;;12.80;99.90;;;;;;5095657;28;20440;-60
2020/12/23 01:34:55;;;;;;;29.65;19.13;;;12.80;99.90;;;;;;5077099;28;20582;-61
2020/12/23 01:37:23;;;;;;;31.10;19.65;;;12.70;99.90;;;;;;5077961;28;20486;-60
2020/12/23 01:39:50;;;;;;;30.73;19.35;;;12.70;99.90;;;;;;5077594;28;20516;-60
2020/12/23 01:42:17;;;;;;;29.48;19.75;;;12.70;99.90;;;;;;5057721;28;20048;-60
2020/12/23 01:44:44;;;;;;;29.60;19.25;;;12.70;99.90;;;;;;5091711;28;20059;-60
2020/12/23 01:47:20;;;;;;;32.20;22.15;;;12.70;99.90;;;;;;5077529;28;20117;-61
2020/12/23 01:49:51;;;;;;;26.95;20.33;;;12.70;99.90;;;;;;5077241;28;20078;-60
2020/12/23 01:52:19;;;;;;;27.48;19.33;;;12.70;99.90;;;;;;5074520;28;20119;-60
2020/12/23 01:54:47;;;;;;;29.15;19.42;;;12.70;99.90;;;;;;5073381;28;21547;-61
2020/12/23 01:57:15;;;;;;;26.70;17.52;;;12.70;99.90;;;;;;5097473;28;20505;-60
2020/12/23 01:59:49;;;;;;;30.83;20.08;;;12.70;99.90;;;;;;5097072;28;20524;-62
2020/12/23 02:02:30;;;;;;;28.65;19.70;;;12.70;99.90;;;;;;5077000;28;20432;-61
2020/12/23 02:04:59;;;;;;;29.60;19.38;;;12.60;99.90;;;;;;5092575;28;20528;-60
2020/12/23 02:07:27;;;;;;;42.80;20.77;;;12.60;99.90;;;;;;5064124;28;20093;-61
2020/12/23 02:09:57;;;;;;;32.22;20.05;;;12.60;99.90;;;;;;5114896;28;20443;-61
2020/12/23 02:12:26;;;;;;;28.00;19.48;;;12.60;99.90;;;;;;5115574;28;20139;-61
2020/12/23 02:14:58;;;;;;;27.85;19.02;;;12.50;99.90;;;;;;5096644;28;20075;-61
2020/12/23 02:17:27;;;;;;;36.38;21.88;;;12.50;99.90;;;;;;5097348;28;20053;-61
2020/12/23 02:19:54;;;;;;;32.60;22.60;;;12.50;99.90;;;;;;5096941;28;20374;-61
2020/12/23 02:22:22;;;;;;;35.83;23.33;;;12.50;99.90;;;;;;5097464;28;20053;-61
2020/12/23 02:24:51;;;;;;;38.83;25.48;;;12.40;99.90;;;;;;5096381;28;20039;-60
2020/12/23 02:27:20;;;;;;;40.25;24.85;;;12.40;99.90;;;;;;5093773;28;20048;-60
2020/12/23 02:29:49;;;;;;;42.92;26.55;;;12.40;99.90;;;;;;5088651;28;20048;-60
2020/12/23 02:32:17;;;;;;;42.60;24.48;;;12.30;99.90;;;;;;5114914;28;20047;-61
2020/12/23 02:34:46;;;;;;;36.15;23.75;;;12.30;99.90;;;;;;5096207;28;20067;-60
2020/12/23 02:37:14;;;;;;;38.72;25.23;;;12.30;99.90;;;;;;5096790;28;20043;-60
2020/12/23 02:39:43;;;;;;;40.10;24.35;;;12.30;99.90;;;;;;5096573;28;20473;-60
2020/12/23 02:42:10;;;;;;;39.03;23.60;;;12.20;99.90;;;;;;5097147;28;20542;-60
2020/12/23 02:44:38;;;;;;;38.17;25.08;;;12.20;99.90;;;;;;5095968;28;20061;-60
2020/12/23 02:47:10;;;;;;;37.58;23.85;;;12.20;99.90;;;;;;5096497;28;20055;-61
2020/12/23 02:49:39;;;;;;;37.55;24.75;;;12.20;99.90;;;;;;5114460;28;20109;-60
2020/12/23 02:52:07;;;;;;;44.70;24.77;;;12.20;99.90;;;;;;5096569;28;20082;-59
2020/12/23 02:54:35;;;;;;;38.30;23.67;;;12.20;99.90;;;;;;5095815;28;20459;-60
2020/12/23 02:57:04;;;;;;;37.28;24.98;;;12.20;99.90;;;;;;5114882;28;20505;-60
2020/12/23 02:59:31;;;;;;;33.55;22.00;;;12.20;99.90;;;;;;5079487;28;20096;-60
2020/12/23 03:01:59;;;;;;;35.75;21.75;;;12.20;99.90;;;;;;5096560;28;20073;-60
2020/12/23 03:04:27;;;;;;;30.02;21.02;;;12.10;99.90;;;;;;5096043;28;20048;-59
2020/12/23 03:06:54;;;;;;;33.35;21.20;;;12.10;99.90;;;;;;5095548;28;20055;-60
2020/12/23 03:09:22;;;;;;;26.20;18.17;;;12.10;99.90;;;;;;5096094;28;20508;-60
2020/12/23 03:11:49;;;;;;;29.63;18.73;;;12.20;99.90;;;;;;5096504;28;20081;-60
2020/12/23 03:14:16;;;;;;;26.80;19.02;;;12.20;99.90;;;;;;5072097;28;20079;-60
2020/12/23 03:16:44;;;;;;;29.48;19.90;;;12.20;99.90;;;;;;5108143;28;20044;-60
2020/12/23 03:19:11;;;;;;;28.73;17.35;;;12.10;99.90;;;;;;5095429;28;20132;-61
2020/12/23 03:21:39;;;;;;;26.73;17.40;;;12.20;99.90;;;;;;5095999;28;20051;-60
2020/12/23 03:24:06;;;;;;;24.88;17.10;;;12.20;99.90;;;;;;5095511;28;20075;-60
2020/12/23 03:26:33;;;;;;;23.80;15.43;;;12.20;99.90;;;;;;5075571;28;20051;-61
2020/12/23 03:29:01;;;;;;;27.70;16.13;;;12.20;99.90;;;;;;5086222;28;20051;-60
2020/12/23 03:31:29;;;;;;;28.02;17.33;;;12.20;99.90;;;;;;5096245;28;20114;-60
2020/12/23 03:33:56;;;;;;;26.42;16.60;;;12.20;99.90;;;;;;5112793;28;20106;-60
2020/12/23 03:36:24;;;;;;;23.95;15.77;;;12.20;99.90;;;;;;4915317;28;20071;-60
2020/12/23 03:38:51;;;;;;;23.45;15.70;;;12.20;99.90;;;;;;5095307;28;20051;-60
2020/12/23 03:41:18;;;;;;;23.52;16.00;;;12.10;99.90;;;;;;5114031;28;20078;-60
2020/12/23 03:43:46;;;;;;;22.55;15.68;;;12.10;99.90;;;;;;5095404;28;20507;-61
2020/12/23 03:46:14;;;;;;;24.60;17.17;;;12.10;99.90;;;;;;5087139;28;20043;-60
2020/12/23 03:48:41;;;;;;;25.20;16.17;;;12.10;99.90;;;;;;5078018;28;20043;-60
2020/12/23 03:51:08;;;;;;;22.08;15.90;;;12.10;99.90;;;;;;5095705;28;20441;-60
2020/12/23 03:53:35;;;;;;;22.45;16.85;;;12.10;99.90;;;;;;5113423;28;20059;-60
2020/12/23 03:56:03;;;;;;;23.15;14.50;;;12.10;99.90;;;;;;5113855;28;20054;-60
2020/12/23 03:58:30;;;;;;;23.75;17.00;;;12.10;99.90;;;;;;5113325;28;20036;-60
2020/12/23 04:00:57;;;;;;;24.88;15.95;;;12.10;99.90;;;;;;5095765;28;20052;-60
2020/12/23 04:03:24;;;;;;;28.00;16.15;;;12.20;99.90;;;;;;5094923;28;20413;-60
2020/12/23 04:05:52;;;;;;;24.55;16.02;;;12.10;99.90;;;;;;5095848;28;20120;-60
2020/12/23 04:08:21;;;;;;;25.95;16.95;;;12.20;99.90;;;;;;5095106;28;20127;-60
2020/12/23 04:10:48;;;;;;;24.48;15.95;;;12.20;99.90;;;;;;5095397;28;20131;-60
2020/12/23 04:13:16;;;;;;;25.75;15.30;;;12.20;99.90;;;;;;5077959;28;20040;-61
2020/12/23 04:15:43;;;;;;;30.58;18.02;;;12.20;99.90;;;;;;5095585;28;20054;-60
2020/12/23 04:18:11;;;;;;;28.85;19.58;;;12.30;99.90;;;;;;5098212;28;20039;-60
2020/12/23 04:20:41;;;;;;;31.98;19.13;;;12.30;99.90;;;;;;5099479;28;20406;-60
2020/12/23 04:23:09;;;;;;;28.77;18.42;;;12.30;99.90;;;;;;5099022;28;20044;-60
2020/12/23 04:25:37;;;;;;;30.45;18.20;;;12.30;99.90;;;;;;5099141;28;20142;-60
2020/12/23 04:28:04;;;;;;;27.42;17.95;;;12.20;99.90;;;;;;5098919;28;20051;-60
2020/12/23 04:30:31;;;;;;;27.38;17.90;;;12.20;99.90;;;;;;5117504;28;20039;-61
2020/12/23 04:32:59;;;;;;;26.70;17.23;;;12.20;99.90;;;;;;5099060;28;20058;-60
2020/12/23 04:35:27;;;;;;;23.65;16.52;;;12.10;99.90;;;;;;5115491;28;20067;-60
2020/12/23 04:37:55;;;;;;;25.45;18.00;;;12.10;99.90;;;;;;5082396;28;20138;-62
2020/12/23 04:40:22;;;;;;;26.88;16.67;;;12.10;99.90;;;;;;5099363;28;20112;-60
2020/12/23 04:42:50;;;;;;;27.55;17.83;;;12.10;99.90;;;;;;5081760;28;20130;-61
2020/12/23 04:45:20;;;;;;;25.55;16.30;;;12.10;99.90;;;;;;5073372;28;20132;-60
2020/12/23 04:47:49;;;;;;;28.88;16.23;;;12.00;99.90;;;;;;5078675;28;20048;-61
2020/12/23 04:50:20;;;;;;;27.75;19.05;;;12.00;99.90;;;;;;5116007;28;20047;-61
2020/12/23 04:52:48;;;;;;;27.77;16.77;;;12.00;99.90;;;;;;5082157;28;20404;-60
2020/12/23 04:55:16;;;;;;;27.83;17.85;;;12.00;99.90;;;;;;5098647;28;20370;-61
2020/12/23 04:57:44;;;;;;;28.20;18.65;;;12.00;99.90;;;;;;5116862;28;20501;-61
2020/12/23 05:00:11;;;;;;;27.70;17.58;;;12.00;99.90;;;;;;5098551;28;20443;-60
2020/12/23 05:02:39;;;;;;;27.73;17.63;;;12.00;99.90;;;;;;5098294;28;20552;-60
2020/12/23 05:05:15;;;;;;;;;;;12.00;99.90;;;;;;5082234;28;20051;-61
2020/12/23 05:07:46;;;;;;;25.08;15.82;;;12.00;99.90;;;;;;5081783;28;20258;-60
2020/12/23 05:10:13;;;;;;;29.65;18.75;;;12.00;99.90;;;;;;5097881;28;20047;-60
2020/12/23 05:12:41;;;;;;;26.85;19.65;;;12.00;99.90;;;;;;5098435;28;20065;-60
2020/12/23 05:15:08;;;;;;;31.33;19.20;;;12.00;99.90;;;;;;5081376;28;20040;-60
2020/12/23 05:17:36;;;;;;;32.60;19.00;;;12.00;99.90;;;;;;5098705;28;20142;-60
2020/12/23 05:20:07;;;;;;;33.42;20.33;;;12.00;99.90;;;;;;5098212;28;20051;-60
2020/12/23 05:22:35;;;;;;;32.22;20.33;;;12.00;99.90;;;;;;5116561;28;20063;-61
2020/12/23 05:25:04;;;;;;;29.77;18.75;;;12.00;99.90;;;;;;5097832;28;20047;-60
2020/12/23 05:27:33;;;;;;;28.60;20.25;;;12.00;99.90;;;;;;5098764;28;20036;-60
2020/12/23 05:30:02;;;;;;;32.13;18.95;;;12.00;99.90;;;;;;5097071;28;20058;-60
2020/12/23 05:32:34;;;;;;;33.10;20.13;;;12.00;99.90;;;;;;5098021;28;20051;-60
2020/12/23 05:35:01;;;;;;;31.23;20.83;;;12.00;99.90;;;;;;5097804;28;20405;-60
2020/12/23 05:37:29;;;;;;;31.13;19.85;;;12.00;99.90;;;;;;5098146;28;20055;-60
2020/12/23 05:39:56;;;;;;;34.47;20.88;;;12.00;99.90;;;;;;5097332;28;20059;-60
2020/12/23 05:42:23;;;;;;;31.70;19.80;;;12.00;99.90;;;;;;5116286;28;20047;-60
2020/12/23 05:44:55;;;;;;;31.23;20.67;;;12.00;99.90;;;;;;5080543;28;20122;-60
2020/12/23 05:47:24;;;;;;;29.70;20.08;;;12.00;99.90;;;;;;5095515;28;20145;-60
2020/12/23 05:49:53;;;;;;;31.13;20.52;;;12.00;99.90;;;;;;5060218;28;20048;-60
2020/12/23 05:52:22;;;;;;;33.75;22.20;;;12.00;99.90;;;;;;5077822;28;20524;-60
2020/12/23 05:54:53;;;;;;;32.67;20.98;;;12.00;99.90;;;;;;5073749;28;20080;-60
2020/12/23 05:57:21;;;;;;;29.77;19.77;;;12.00;99.90;;;;;;5077536;28;20047;-60
2020/12/23 05:59:48;;;;;;;28.02;19.20;;;12.00;99.90;;;;;;5094232;28;20048;-60
2020/12/23 06:02:22;;;;;;;30.83;18.42;;;11.90;99.90;;;;;;5080708;28;20071;-60
2020/12/23 06:04:53;;;;;;;31.08;19.33;;;12.00;99.90;;;;;;5074695;28;20069;-60
2020/12/23 06:07:28;;;;;;;25.52;18.33;;;11.90;99.90;;;;;;5094215;28;20121;-60
2020/12/23 06:09:59;;;;;;;27.27;19.73;;;11.90;99.90;;;;;;5095293;28;20054;-60
2020/12/23 06:12:31;;;;;;;30.50;18.88;;;11.90;99.90;;;;;;5115718;28;20086;-60
2020/12/23 06:15:00;;;;;;;28.60;18.08;;;11.90;99.90;;;;;;5114871;28;20078;-60
2020/12/23 06:17:36;;;;;;;31.00;21.52;;;11.90;99.90;;;;;;5115462;28;20463;-60
2020/12/23 06:20:05;;;;;;;31.33;21.48;;;12.00;99.90;;;;;;5115307;28;20374;-60
2020/12/23 06:22:40;;;;;;;28.45;20.10;;;12.10;99.90;;;;;;5097547;28;20044;-60
2020/12/23 06:25:08;;;;;;;35.25;21.85;;;12.20;99.90;;;;;;5114956;28;20050;-60
2020/12/23 06:27:40;;;;;;;33.05;21.17;;;12.60;99.90;;;;;;5115076;28;20055;-60
2020/12/23 06:30:07;;;;;;;36.78;22.90;;;13.10;99.90;;;;;;5096814;28;20054;-60
2020/12/23 06:32:36;;;;;;;32.80;22.75;;;13.70;99.90;;;;;;5096842;28;20065;-60
2020/12/23 06:35:04;;;;;;;32.83;21.75;;;14.30;99.90;;;;;;5051732;28;20097;-60
2020/12/23 06:37:33;;;;;;;33.40;20.92;;;14.90;99.90;;;;;;5063857;28;20061;-60
2020/12/23 06:40:19;;;;;;;32.42;22.90;;;15.20;99.90;;;;;;5096688;28;20075;-60
2020/12/23 06:42:48;;;;;;;31.27;19.38;;;15.20;99.90;;;;;;5114561;28;20101;-60
2020/12/23 06:45:15;;;;;;;29.63;19.58;;;15.30;99.90;;;;;;5114349;28;20454;-60
2020/12/23 06:47:43;;;;;;;35.90;23.63;;;15.40;99.90;;;;;;5096913;28;20044;-60
2020/12/23 06:50:25;;;;;;;30.23;20.58;;;15.50;99.90;;;;;;5096773;28;20109;-60
2020/12/23 06:52:53;;;;;;;27.70;19.30;;;16.00;99.90;;;;;;5096388;28;20048;-60
2020/12/23 06:55:20;;;;;;;31.20;20.02;;;16.60;99.60;;;;;;5050375;28;20505;-60
2020/12/23 06:57:49;;;;;;;28.95;18.20;;;17.50;98.10;;;;;;5060064;28;20121;-60
2020/12/23 07:00:20;;;;;;;25.15;18.70;;;18.30;96.60;;;;;;5019144;28;20134;-60
2020/12/23 07:02:49;;;;;;;30.85;17.00;;;19.00;95.10;;;;;;5095806;28;20052;-61
2020/12/23 07:05:23;;;;;;;28.05;19.27;;;19.50;94.20;;;;;;5096080;28;20455;-60
2020/12/23 07:07:58;;;;;;;32.38;22.05;;;20.00;93.00;;;;;;5095917;28;20124;-61
2020/12/23 07:10:30;;;;;;;31.35;20.95;;;20.40;91.90;;;;;;5112258;28;20054;-60
2020/12/23 07:13:00;;;;;;;33.92;21.63;;;20.90;90.90;;;;;;5078767;28;20047;-61
2020/12/23 07:15:42;;;;;;;33.22;20.85;;;21.30;90.00;;;;;;5112599;28;20047;-60
2020/12/23 07:18:17;;;;;;;41.67;24.98;;;21.70;87.80;;;;;;5113606;28;20040;-60
2020/12/23 07:20:45;;;;;;;41.85;27.00;;;22.10;86.40;;;;;;5110250;28;20414;-60
2020/12/23 07:23:14;;;;;;;46.55;29.27;;;22.40;84.80;;;;;;5095894;28;20108;-61
2020/12/23 07:25:49;;;;;;;51.92;34.30;;;22.70;83.40;;;;;;5091706;28;20043;-60
2020/12/23 07:28:22;;;;;;;52.50;35.15;;;23.20;81.90;;;;;;5113550;28;20047;-61
2020/12/23 07:30:49;;;;;;;52.88;32.70;;;23.60;80.20;;;;;;5095727;28;20048;-61
2020/12/23 07:33:21;;;;;;;41.08;28.65;;;23.90;78.40;;;;;;5095573;28;20061;-61
2020/12/23 07:35:50;;;;;;;33.30;24.23;;;24.40;77.30;;;;;;5113865;28;20470;-60
2020/12/23 07:38:19;;;;;;;32.80;20.58;;;24.70;76.10;;;;;;5095251;28;20397;-61
2020/12/23 07:40:47;;;;;;;27.83;17.92;;;25.00;75.40;;;;;;5095490;28;20036;-62
2020/12/23 07:43:15;;;;;;;29.70;19.83;;;25.10;74.80;;;;;;5078757;28;20043;-61
2020/12/23 07:45:44;;;;;;;28.42;18.48;;;25.20;74.70;;;;;;5109705;28;20039;-61
2020/12/23 07:48:18;;;;;;;31.15;18.17;;;25.10;74.80;;;;;;5095287;28;20039;-61
2020/12/23 07:50:52;;;;;;;25.52;17.58;;;25.10;74.80;;;;;;5092040;28;20051;-61
2020/12/23 07:53:30;;;;;;;31.60;18.02;;;24.80;75.20;;;;;;5095137;28;20516;-61
2020/12/23 07:56:05;;;;;;;28.83;19.45;;;24.50;75.90;;;;;;5095445;28;20047;-61
2020/12/23 07:58:34;;;;;;;30.23;18.05;;;24.30;76.70;;;;;;5113188;28;20439;-60
2020/12/23 08:01:02;;;;;;;21.55;15.85;;;24.00;77.40;;;;;;5113553;28;20051;-61
2020/12/23 08:03:31;;;;;;;23.00;16.23;;;23.80;78.50;;;;;;5078043;28;20054;-61
2020/12/23 08:06:10;;;;;;;22.13;15.60;;;23.60;79.40;;;;;;5078788;28;20050;-61
2020/12/23 08:08:39;;;;;;;20.90;14.40;;;23.30;80.10;;;;;;5094773;28;20062;-61
2020/12/23 08:11:14;;;;;;;21.45;14.88;;;23.20;80.70;;;;;;5113754;28;20047;-61
2020/12/23 08:13:43;;;;;;;23.03;13.90;;;23.10;81.00;;;;;;5113225;28;20047;-61
2020/12/23 08:16:12;;;;;;;17.23;12.35;;;23.00;81.40;;;;;;5113664;28;20051;-61
2020/12/23 08:18:40;;;;;;;14.82;10.60;;;23.00;81.50;;;;;;5058597;28;20059;-61
2020/12/23 08:21:08;;;;;;;16.15;11.73;;;22.90;82.10;;;;;;5095192;28;20047;-61
2020/12/23 08:23:36;;;;;;;16.63;12.50;;;22.90;81.20;;;;;;5113381;28;20174;-61
2020/12/23 08:26:05;;;;;;;15.93;10.73;;;22.90;81.00;;;;;;5075362;28;20048;-61
2020/12/23 08:28:38;;;;;;;17.23;10.95;;;22.80;81.40;;;;;;5080177;28;20086;-61
2020/12/23 08:31:17;;;;;;;15.35;11.00;;;22.60;81.80;;;;;;5058302;28;20094;-61
2020/12/23 08:33:47;;;;;;;14.68;9.80;;;22.40;82.60;;;;;;5080171;28;20071;-60
2020/12/23 08:36:15;;;;;;;14.50;11.07;;;22.10;83.00;;;;;;5103662;28;20051;-60
2020/12/23 08:38:43;;;;;;;15.60;10.35;;;21.90;84.00;;;;;;5078027;28;20382;-60
2020/12/23 08:41:18;;;;;;;15.13;10.27;;;21.50;85.10;;;;;;5095594;28;20127;-60
2020/12/23 08:43:47;;;;;;;15.30;11.30;;;21.30;86.20;;;;;;5095159;28;20101;-60
2020/12/23 08:46:25;;;;;;;18.92;11.60;;;21.00;87.40;;;;;;5069928;28;20113;-60
2020/12/23 08:48:54;;;;;;;19.65;12.68;;;20.70;88.30;;;;;;5112284;28;20058;-60
2020/12/23 08:51:25;;;;;;;20.05;12.93;;;20.50;89.00;;;;;;5074875;28;20054;-60
2020/12/23 08:53:54;;;;;;;18.95;12.70;;;20.40;89.80;;;;;;5094565;28;20047;-60
2020/12/23 08:56:31;;;;;;;17.42;11.82;;;20.30;90.20;;;;;;5113152;28;20135;-61
2020/12/23 08:59:04;;;;;;;20.93;13.07;;;20.20;90.30;;;;;;5094595;28;20455;-60
2020/12/23 09:01:34;;;;;;;17.92;12.98;;;20.10;90.50;;;;;;5094927;28;20273;-60
2020/12/23 09:04:07;;;;;;;18.63;13.05;;;20.10;90.40;;;;;;5089460;28;20105;-60
2020/12/23 09:06:36;;;;;;;20.95;13.90;;;20.00;90.50;;;;;;5116527;28;20047;-61
2020/12/23 09:09:22;;;;;;;22.83;15.52;;;20.00;90.80;;;;;;5097791;28;20047;-60
2020/12/23 09:11:56;;;;;;;22.33;14.45;;;20.00;91.10;;;;;;5116413;28;20493;-60
2020/12/23 09:14:34;;;;;;;23.70;15.52;;;20.00;91.40;;;;;;5097642;28;20402;-61
2020/12/23 09:17:14;;;;;;;21.30;13.15;;;20.00;91.60;;;;;;5098046;28;20051;-60
2020/12/23 09:19:52;;;;;;;25.70;14.48;;;19.90;92.20;;;;;;5080936;28;20043;-60
2020/12/23 09:22:30;;;;;;;22.27;15.35;;;20.00;92.30;;;;;;5095958;28;20071;-60
2020/12/23 09:25:13;;;;;;;26.50;16.65;;;20.00;92.20;;;;;;5077856;28;20508;-60
2020/12/23 09:27:45;;;;;;;29.13;16.50;;;20.00;92.30;;;;;;5098033;28;20054;-60
2020/12/23 09:30:39;;;;;;;24.92;16.42;;;20.10;92.50;;;;;;5092848;28;20134;-61
2020/12/23 09:33:14;;;;;;;24.85;16.88;;;20.00;92.60;;;;;;5080519;28;20048;-60
2020/12/23 09:35:44;;;;;;;23.83;16.07;;;20.00;92.90;;;;;;4860611;28;20134;-60
2020/12/23 09:38:19;;;;;;;25.02;15.77;;;19.90;93.00;;;;;;5097250;28;20289;-61
2020/12/23 09:40:54;;;;;;;21.58;15.82;;;20.00;93.10;;;;;;5111686;28;20054;-60
2020/12/23 09:43:25;;;;;;;23.48;15.00;;;20.00;93.10;;;;;;5115690;28;20598;-60
2020/12/23 09:45:55;;;;;;;21.40;13.27;;;20.00;93.00;;;;;;5115713;28;20059;-60
2020/12/23 09:48:25;;;;;;;24.88;14.80;;;20.10;92.90;;;;;;5096860;28;20169;-60
2020/12/23 09:50:53;;;;;;;19.27;14.32;;;20.10;92.90;;;;;;5060684;28;20044;-60
2020/12/23 09:53:25;;;;;;;22.02;16.15;;;20.10;92.80;;;;;;5081772;28;20063;-60
2020/12/23 09:55:54;;;;;;;21.80;13.73;;;20.20;92.70;;;;;;5115420;28;20135;-60
2020/12/23 09:58:22;;;;;;;23.10;14.25;;;20.20;92.60;;;;;;5115168;28;20116;-61
2020/12/23 10:00:52;;;;;;;18.48;11.82;;;20.20;92.10;;;;;;5097880;28;20059;-61
2020/12/23 10:03:20;;;;;;;17.77;11.52;;;20.20;91.80;;;;;;5095948;28;20465;-60
2020/12/23 10:05:47;;;;;;;14.38;10.82;;;20.20;91.30;;;;;;5113951;28;20417;-61
2020/12/23 10:08:18;;;;;;;20.02;12.35;;;20.20;91.50;;;;;;5078435;28;20039;-60
2020/12/23 10:10:45;;;;;;;18.80;11.70;;;20.20;91.60;;;;;;5088327;28;20059;-60
2020/12/23 10:13:12;;;;;;;18.80;12.77;;;20.20;91.50;;;;;;5043952;28;20473;-57
2020/12/23 10:15:40;;;;;;;16.48;11.75;;;20.20;91.30;;;;;;4659789;28;20720;-55
2020/12/23 10:18:08;;;;;;;21.63;12.18;;;20.20;91.50;;;;;;4880546;28;20125;-60
2020/12/23 10:20:36;;;;;;;15.13;10.13;;;20.20;91.20;;;;;;5095578;28;20059;-60
2020/12/23 10:23:03;;;;;;;17.25;10.93;;;20.20;90.10;;;;;;5078232;28;20481;-60
2020/12/23 10:25:34;;;;;;;14.60;10.02;;;20.20;90.30;;;;;;5078427;28;20050;-60
2020/12/23 10:28:01;;;;;;;15.90;10.50;;;20.20;90.40;;;;;;5094790;28;20048;-60
2020/12/23 10:30:29;;;;;;;15.30;10.30;;;20.10;90.60;;;;;;4743194;28;20875;-56
2020/12/23 10:33:08;;;;;;;16.30;9.98;;;20.20;90.50;;;;;;4736981;28;20151;-60
2020/12/23 10:35:35;;;;;;;18.00;11.25;;;20.20;90.10;;;;;;5095383;28;20055;-60
2020/12/23 10:38:03;;;;;;;15.77;10.35;;;20.20;90.00;;;;;;5095749;28;20473;-60
2020/12/23 10:40:31;;;;;;;14.38;9.82;;;20.20;90.10;;;;;;5096612;28;20043;-60
2020/12/23 10:43:00;;;;;;;14.13;9.50;;;20.30;89.90;;;;;;5114296;28;20051;-60
2020/12/23 10:45:30;;;;;;;15.85;10.80;;;20.30;89.90;;;;;;5112759;28;20066;-60
2020/12/23 10:47:58;;;;;;;15.50;10.90;;;20.30;89.80;;;;;;5079167;28;20082;-60
2020/12/23 10:50:25;;;;;;;15.35;10.68;;;20.30;89.50;;;;;;5093993;28;20040;-60
2020/12/23 10:52:53;;;;;;;16.73;11.00;;;20.40;89.50;;;;;;5095546;28;20435;-60
2020/12/23 10:55:20;;;;;;;16.52;11.82;;;20.30;89.70;;;;;;5096043;28;20083;-60
2020/12/23 10:57:47;;;;;;;18.00;10.40;;;20.30;89.80;;;;;;5113939;28;20047;-61
2020/12/23 11:00:15;;;;;;;16.05;10.70;;;20.30;89.80;;;;;;5113824;28;20043;-60
2020/12/23 11:02:42;;;;;;;17.25;10.75;;;20.20;89.50;;;;;;5095961;28;20069;-60
2020/12/23 11:05:10;;;;;;;15.95;10.82;;;20.20;89.40;;;;;;5095572;28;20517;-60
2020/12/23 11:07:40;;;;;;;16.40;10.63;;;20.20;89.60;;;;;;5114110;28;20044;-60
2020/12/23 11:10:12;;;;;;;15.07;11.43;;;20.20;89.60;;;;;;5096819;28;20725;-60
2020/12/23 11:12:40;;;;;;;14.15;10.23;;;20.20;89.40;;;;;;5096024;28;20074;-60
2020/12/23 11:15:08;;;;;;;17.73;11.00;;;20.20;88.90;;;;;;5078538;28;20489;-60
2020/12/23 11:17:35;;;;;;;18.63;11.15;;;20.20;88.60;;;;;;5079270;28;20079;-60
2020/12/23 11:20:03;;;;;;;15.48;10.50;;;20.20;88.50;;;;;;5095005;28;20059;-60
2020/12/23 11:22:31;;;;;;;20.30;10.73;;;20.10;88.20;;;;;;5096105;28;20046;-59
2020/12/23 11:25:08;;;;;;;17.30;12.18;;;20.10;88.10;;;;;;5050839;28;20131;-60
2020/12/23 11:27:36;;;;;;;16.25;11.20;;;20.10;88.30;;;;;;5113365;28;20130;-60
2020/12/23 11:30:04;;;;;;;17.92;11.00;;;20.10;88.40;;;;;;5095446;28;20059;-60
2020/12/23 11:32:32;;;;;;;18.17;12.90;;;20.00;88.70;;;;;;5113597;28;20130;-59
2020/12/23 11:34:59;;;;;;;18.60;12.02;;;20.00;88.20;;;;;;5095380;28;20044;-59
2020/12/23 11:37:30;;;;;;;18.10;12.73;;;20.00;88.70;;;;;;5095564;28;20470;-60
2020/12/23 11:39:59;;;;;;;19.88;13.88;;;20.00;89.10;;;;;;5094955;28;20055;-60
2020/12/23 11:42:26;;;;;;;19.20;12.50;;;20.00;89.20;;;;;;5078769;28;20089;-60
2020/12/23 11:44:54;;;;;;;22.40;13.55;;;19.90;89.00;;;;;;5094336;28;20047;-60
2020/12/23 11:47:21;;;;;;;18.58;12.32;;;19.90;88.30;;;;;;5078758;28;20128;-59
2020/12/23 11:49:59;;;;;;;21.13;11.50;;;19.80;88.60;;;;;;5042881;28;20089;-60
2020/12/23 11:52:29;;;;;;;15.63;11.13;;;19.80;88.60;;;;;;5078911;28;20493;-60
2020/12/23 11:54:57;;;;;;;12.60;9.40;;;19.70;88.60;;;;;;5073052;28;20044;-59
2020/12/23 11:57:24;;;;;;;13.95;9.88;;;19.70;88.10;;;;;;5075048;28;20051;-60
2020/12/23 11:59:53;;;;;;;15.98;9.52;;;19.60;88.30;;;;;;5074516;28;20048;-60
2020/12/23 12:02:20;;;;;;;15.45;10.20;;;19.60;88.00;;;;;;5058519;28;20135;-60
2020/12/23 12:04:47;;;;;;;11.73;8.27;;;19.60;88.10;;;;;;5074242;28;20056;-60
2020/12/23 12:07:15;;;;;;;11.68;7.43;;;19.50;88.30;;;;;;5074936;28;20048;-60
2020/12/23 12:09:42;;;;;;;14.40;8.90;;;19.50;88.50;;;;;;5057759;28;20386;-60
2020/12/23 12:12:10;;;;;;;14.50;9.68;;;19.50;88.10;;;;;;5058338;28;20052;-60
2020/12/23 12:14:38;;;;;;;17.02;10.68;;;19.50;88.50;;;;;;5074324;28;20063;-60
2020/12/23 12:17:05;;;;;;;19.08;7.65;;;19.40;88.60;;;;;;5074864;28;20097;-59
2020/12/23 12:19:33;;;;;;;13.73;7.25;;;19.40;88.30;;;;;;5032389;28;20045;-60
2020/12/23 12:22:00;;;;;;;9.45;6.65;;;19.40;88.00;;;;;;5072891;28;20059;-59
2020/12/23 12:24:28;;;;;;;9.15;6.47;;;19.40;88.40;;;;;;5074252;28;20048;-60
2020/12/23 12:26:56;;;;;;;10.55;7.03;;;19.30;88.60;;;;;;5074543;28;20509;-59
2020/12/23 12:29:23;;;;;;;10.90;6.20;;;19.30;88.50;;;;;;5092202;28;20486;-60
2020/12/23 12:31:53;;;;;;;9.82;6.30;;;19.20;88.70;;;;;;5058293;28;20076;-59
2020/12/23 12:34:22;;;;;;;8.57;5.68;;;19.20;87.80;;;;;;5057626;28;20044;-59
2020/12/23 12:36:51;;;;;;;8.57;5.60;;;19.10;88.40;;;;;;5057981;28;20186;-60
2020/12/23 12:39:19;;;;;;;8.13;5.47;;;19.00;89.00;;;;;;5060926;28;20078;-59